sensor_id;sensor_type;location;lat;lon;timestamp;temperature;humidity
45807;DHT22;31507;51.494;7.518;2022-12-18T00:01:00;-6.40;99.90
45807;DHT22;31507;51.494;7.518;2022-12-18T00:03:34;-6.40;99.90
45807;DHT22;31507;51.494;7.518;2022-12-18T00:05:59;-6.60;99.90
45807;DHT22;31507;51.494;7.518;2022-12-18T00:08:25;-6.70;99.90
45807;DHT22;31507;51.494;7.518;2022-12-18T00:10:51;-6.90;99.90
45807;DHT22;31507;51.494;7.518;2022-12-18T00:13:16;-6.90;99.90
45807;DHT22;31507;51.494;7.518;2022-12-18T00:15:42;-6.80;99.90
45807;DHT22;31507;51.494;7.518;2022-12-18T00:18:08;-6.90;99.90
45807;DHT22;31507;51.494;7.518;2022-12-18T00:20:39;-6.80;99.90
45807;DHT22;31507;51.494;7.518;2022-12-18T00:23:05;-6.90;99.90
45807;DHT22;31507;51.494;7.518;2022-12-18T00:25:35;-6.90;99.90
45807;DHT22;31507;51.494;7.518;2022-12-18T00:28:02;-7.00;99.90
45807;DHT22;31507;51.494;7.518;2022-12-18T00:30:28;-7.10;99.90
45807;DHT22;31507;51.494;7.518;2022-12-18T00:32:54;-7.10;99.90
45807;DHT22;31507;51.494;7.518;2022-12-18T00:35:19;-7.20;99.90
45807;DHT22;31507;51.494;7.518;2022-12-18T00:37:45;-7.10;99.90
45807;DHT22;31507;51.494;7.518;2022-12-18T00:40:11;-7.10;99.90
45807;DHT22;31507;51.494;7.518;2022-12-18T00:42:37;-7.10;99.90
45807;DHT22;31507;51.494;7.518;2022-12-18T00:45:29;-7.20;99.90
45807;DHT22;31507;51.494;7.518;2022-12-18T00:47:56;-7.20;99.90
45807;DHT22;31507;51.494;7.518;2022-12-18T00:50:23;-7.20;99.90
45807;DHT22;31507;51.494;7.518;2022-12-18T00:52:50;-7.20;99.90
45807;DHT22;31507;51.494;7.518;2022-12-18T00:55:16;-7.20;99.90
45807;DHT22;31507;51.494;7.518;2022-12-18T00:57:42;-6.90;99.90
45807;DHT22;31507;51.494;7.518;2022-12-18T01:00:13;-6.80;99.90
45807;DHT22;31507;51.494;7.518;2022-12-18T01:02:40;-6.80;99.90
45807;DHT22;31507;51.494;7.518;2022-12-18T01:05:06;-6.80;99.90
45807;DHT22;31507;51.494;7.518;2022-12-18T01:07:32;-6.90;99.90
45807;DHT22;31507;51.494;7.518;2022-12-18T01:09:57;-6.80;99.90
45807;DHT22;31507;51.494;7.518;2022-12-18T01:12:23;-6.80;99.90
45807;DHT22;31507;51.494;7.518;2022-12-18T01:14:48;-6.80;99.90
45807;DHT22;31507;51.494;7.518;2022-12-18T01:17:14;-6.80;99.90
45807;DHT22;31507;51.494;7.518;2022-12-18T01:19:40;-6.60;99.90
45807;DHT22;31507;51.494;7.518;2022-12-18T01:22:05;-6.00;99.90
45807;DHT22;31507;51.494;7.518;2022-12-18T01:24:31;-5.40;99.90
45807;DHT22;31507;51.494;7.518;2022-12-18T01:26:57;-5.10;99.90
45807;DHT22;31507;51.494;7.518;2022-12-18T01:29:23;-4.90;99.90
45807;DHT22;31507;51.494;7.518;2022-12-18T01:31:49;-4.50;99.90
45807;DHT22;31507;51.494;7.518;2022-12-18T01:34:14;-4.40;99.90
45807;DHT22;31507;51.494;7.518;2022-12-18T01:36:40;-4.20;99.90
45807;DHT22;31507;51.494;7.518;2022-12-18T01:39:09;-4.10;99.90
45807;DHT22;31507;51.494;7.518;2022-12-18T01:41:35;-4.00;99.90
45807;DHT22;31507;51.494;7.518;2022-12-18T01:47:41;-4.00;99.90
45807;DHT22;31507;51.494;7.518;2022-12-18T01:53:02;-3.90;99.90
45807;DHT22;31507;51.494;7.518;2022-12-18T01:55:32;-3.90;99.90
45807;DHT22;31507;51.494;7.518;2022-12-18T01:58:00;-3.80;99.90
45807;DHT22;31507;51.494;7.518;2022-12-18T02:00:26;-3.80;99.90
45807;DHT22;31507;51.494;7.518;2022-12-18T02:02:53;-3.90;99.90
45807;DHT22;31507;51.494;7.518;2022-12-18T02:05:29;-3.90;99.90
45807;DHT22;31507;51.494;7.518;2022-12-18T02:08:20;-3.80;99.90
45807;DHT22;31507;51.494;7.518;2022-12-18T02:18:59;-3.90;99.90
45807;DHT22;31507;51.494;7.518;2022-12-18T02:24:29;-3.80;99.90
45807;DHT22;31507;51.494;7.518;2022-12-18T02:26:56;-3.90;99.90
45807;DHT22;31507;51.494;7.518;2022-12-18T02:29:26;-3.80;99.90
45807;DHT22;31507;51.494;7.518;2022-12-18T02:31:56;-3.90;99.90
45807;DHT22;31507;51.494;7.518;2022-12-18T02:34:29;-4.00;99.90
45807;DHT22;31507;51.494;7.518;2022-12-18T02:36:57;-4.10;99.90
45807;DHT22;31507;51.494;7.518;2022-12-18T02:39:25;-4.20;99.90
45807;DHT22;31507;51.494;7.518;2022-12-18T02:41:52;-4.10;99.90
45807;DHT22;31507;51.494;7.518;2022-12-18T02:44:18;-4.20;99.90
45807;DHT22;31507;51.494;7.518;2022-12-18T02:46:50;-4.20;99.90
45807;DHT22;31507;51.494;7.518;2022-12-18T02:52:12;-4.00;99.90
45807;DHT22;31507;51.494;7.518;2022-12-18T02:54:58;-4.00;99.90
45807;DHT22;31507;51.494;7.518;2022-12-18T02:57:35;-4.00;99.90
45807;DHT22;31507;51.494;7.518;2022-12-18T03:00:12;-4.10;99.90
45807;DHT22;31507;51.494;7.518;2022-12-18T03:03:28;-4.20;99.90
45807;DHT22;31507;51.494;7.518;2022-12-18T03:05:53;-4.30;99.90
45807;DHT22;31507;51.494;7.518;2022-12-18T03:08:30;-4.30;99.90
45807;DHT22;31507;51.494;7.518;2022-12-18T03:11:06;-4.40;99.90
45807;DHT22;31507;51.494;7.518;2022-12-18T03:13:47;-4.40;99.90
45807;DHT22;31507;51.494;7.518;2022-12-18T03:16:24;-4.50;99.90
45807;DHT22;31507;51.494;7.518;2022-12-18T03:18:55;-4.60;99.90
45807;DHT22;31507;51.494;7.518;2022-12-18T03:21:27;-4.60;99.90
45807;DHT22;31507;51.494;7.518;2022-12-18T03:23:53;-4.60;99.90
45807;DHT22;31507;51.494;7.518;2022-12-18T03:26:24;-4.50;99.90
45807;DHT22;31507;51.494;7.518;2022-12-18T03:28:53;-4.40;99.90
45807;DHT22;31507;51.494;7.518;2022-12-18T03:31:22;-4.40;99.90
45807;DHT22;31507;51.494;7.518;2022-12-18T03:33:54;-4.30;99.90
45807;DHT22;31507;51.494;7.518;2022-12-18T03:36:21;-4.30;99.90
45807;DHT22;31507;51.494;7.518;2022-12-18T03:38:47;-4.20;99.90
45807;DHT22;31507;51.494;7.518;2022-12-18T03:41:37;-4.30;99.90
45807;DHT22;31507;51.494;7.518;2022-12-18T03:47:14;-4.10;99.90
45807;DHT22;31507;51.494;7.518;2022-12-18T03:52:21;-4.00;99.90
45807;DHT22;31507;51.494;7.518;2022-12-18T03:54:49;-4.10;99.90
45807;DHT22;31507;51.494;7.518;2022-12-18T03:57:26;-4.10;99.90
45807;DHT22;31507;51.494;7.518;2022-12-18T03:59:57;-4.20;99.90
45807;DHT22;31507;51.494;7.518;2022-12-18T04:02:25;-4.20;99.90
45807;DHT22;31507;51.494;7.518;2022-12-18T04:04:56;-4.10;99.90
45807;DHT22;31507;51.494;7.518;2022-12-18T04:07:24;-4.00;99.90
45807;DHT22;31507;51.494;7.518;2022-12-18T04:09:53;-4.00;99.90
45807;DHT22;31507;51.494;7.518;2022-12-18T04:12:20;-4.00;99.90
45807;DHT22;31507;51.494;7.518;2022-12-18T04:14:45;-4.00;99.90
45807;DHT22;31507;51.494;7.518;2022-12-18T04:17:11;-4.00;99.90
45807;DHT22;31507;51.494;7.518;2022-12-18T04:19:36;-4.10;99.90
45807;DHT22;31507;51.494;7.518;2022-12-18T04:22:02;-4.10;99.90
45807;DHT22;31507;51.494;7.518;2022-12-18T04:24:28;-4.20;99.90
45807;DHT22;31507;51.494;7.518;2022-12-18T04:26:53;-4.10;99.90
45807;DHT22;31507;51.494;7.518;2022-12-18T04:29:19;-4.00;99.90
45807;DHT22;31507;51.494;7.518;2022-12-18T04:31:45;-3.80;99.90
45807;DHT22;31507;51.494;7.518;2022-12-18T04:34:10;-3.80;99.90
45807;DHT22;31507;51.494;7.518;2022-12-18T04:36:36;-3.80;99.90
45807;DHT22;31507;51.494;7.518;2022-12-18T04:39:02;-3.70;99.90
45807;DHT22;31507;51.494;7.518;2022-12-18T04:41:28;-3.80;99.90
45807;DHT22;31507;51.494;7.518;2022-12-18T04:43:53;-3.80;99.90
45807;DHT22;31507;51.494;7.518;2022-12-18T04:46:19;-3.80;99.90
45807;DHT22;31507;51.494;7.518;2022-12-18T04:48:46;-3.80;99.90
45807;DHT22;31507;51.494;7.518;2022-12-18T04:51:12;-3.90;99.90
45807;DHT22;31507;51.494;7.518;2022-12-18T04:53:38;-4.00;99.90
45807;DHT22;31507;51.494;7.518;2022-12-18T04:56:04;-4.10;99.90
45807;DHT22;31507;51.494;7.518;2022-12-18T04:58:30;-4.10;99.90
45807;DHT22;31507;51.494;7.518;2022-12-18T05:00:55;-4.20;99.90
45807;DHT22;31507;51.494;7.518;2022-12-18T05:03:21;-4.40;99.90
45807;DHT22;31507;51.494;7.518;2022-12-18T05:05:50;-4.50;99.90
45807;DHT22;31507;51.494;7.518;2022-12-18T05:08:16;-4.50;99.90
45807;DHT22;31507;51.494;7.518;2022-12-18T05:10:41;-4.50;99.90
45807;DHT22;31507;51.494;7.518;2022-12-18T05:13:07;-4.50;99.90
45807;DHT22;31507;51.494;7.518;2022-12-18T05:15:33;-4.60;99.90
45807;DHT22;31507;51.494;7.518;2022-12-18T05:17:59;-4.80;99.90
45807;DHT22;31507;51.494;7.518;2022-12-18T05:20:27;-4.80;99.90
45807;DHT22;31507;51.494;7.518;2022-12-18T05:22:54;-4.80;99.90
45807;DHT22;31507;51.494;7.518;2022-12-18T05:25:20;-4.80;99.90
45807;DHT22;31507;51.494;7.518;2022-12-18T05:27:46;-4.90;99.90
45807;DHT22;31507;51.494;7.518;2022-12-18T05:30:13;-5.00;99.90
45807;DHT22;31507;51.494;7.518;2022-12-18T05:32:39;-5.10;99.90
45807;DHT22;31507;51.494;7.518;2022-12-18T05:35:06;-5.30;99.90
45807;DHT22;31507;51.494;7.518;2022-12-18T05:37:32;-5.30;99.90
45807;DHT22;31507;51.494;7.518;2022-12-18T05:39:59;-5.20;99.90
45807;DHT22;31507;51.494;7.518;2022-12-18T05:42:24;-5.10;99.90
45807;DHT22;31507;51.494;7.518;2022-12-18T05:44:50;-5.00;99.90
45807;DHT22;31507;51.494;7.518;2022-12-18T05:47:15;-5.10;99.90
45807;DHT22;31507;51.494;7.518;2022-12-18T05:49:41;-5.00;99.90
45807;DHT22;31507;51.494;7.518;2022-12-18T05:52:07;-4.90;99.90
45807;DHT22;31507;51.494;7.518;2022-12-18T05:54:32;-4.50;99.90
45807;DHT22;31507;51.494;7.518;2022-12-18T05:56:58;-4.30;99.90
45807;DHT22;31507;51.494;7.518;2022-12-18T05:59:24;-3.90;99.90
45807;DHT22;31507;51.494;7.518;2022-12-18T06:01:49;-3.70;99.90
45807;DHT22;31507;51.494;7.518;2022-12-18T06:04:15;-3.50;99.90
45807;DHT22;31507;51.494;7.518;2022-12-18T06:06:41;-3.30;99.90
45807;DHT22;31507;51.494;7.518;2022-12-18T06:09:06;-3.30;99.90
45807;DHT22;31507;51.494;7.518;2022-12-18T06:11:35;-3.20;99.90
45807;DHT22;31507;51.494;7.518;2022-12-18T06:14:02;-3.30;99.90
45807;DHT22;31507;51.494;7.518;2022-12-18T06:16:29;-3.30;99.90
45807;DHT22;31507;51.494;7.518;2022-12-18T06:19:02;-3.40;99.90
45807;DHT22;31507;51.494;7.518;2022-12-18T06:21:29;-3.50;99.90
45807;DHT22;31507;51.494;7.518;2022-12-18T06:23:54;-3.60;99.90
45807;DHT22;31507;51.494;7.518;2022-12-18T06:26:20;-3.60;99.90
45807;DHT22;31507;51.494;7.518;2022-12-18T06:28:45;-3.70;99.90
45807;DHT22;31507;51.494;7.518;2022-12-18T06:31:11;-3.80;99.90
45807;DHT22;31507;51.494;7.518;2022-12-18T06:33:38;-3.90;99.90
45807;DHT22;31507;51.494;7.518;2022-12-18T06:36:09;-3.60;99.90
45807;DHT22;31507;51.494;7.518;2022-12-18T06:38:37;-3.40;99.90
45807;DHT22;31507;51.494;7.518;2022-12-18T06:41:10;-3.30;99.90
45807;DHT22;31507;51.494;7.518;2022-12-18T06:43:37;-3.20;99.90
45807;DHT22;31507;51.494;7.518;2022-12-18T06:46:03;-3.10;99.90
45807;DHT22;31507;51.494;7.518;2022-12-18T06:48:30;-3.20;99.90
45807;DHT22;31507;51.494;7.518;2022-12-18T06:50:56;-3.30;99.90
45807;DHT22;31507;51.494;7.518;2022-12-18T06:53:21;-3.30;99.90
45807;DHT22;31507;51.494;7.518;2022-12-18T06:55:47;-3.40;99.90
45807;DHT22;31507;51.494;7.518;2022-12-18T06:58:13;-3.40;99.90
45807;DHT22;31507;51.494;7.518;2022-12-18T07:00:38;-3.30;99.90
45807;DHT22;31507;51.494;7.518;2022-12-18T07:03:04;-3.10;99.90
45807;DHT22;31507;51.494;7.518;2022-12-18T07:05:29;-3.00;99.90
45807;DHT22;31507;51.494;7.518;2022-12-18T07:07:55;-2.90;99.90
45807;DHT22;31507;51.494;7.518;2022-12-18T07:10:21;-2.90;99.90
45807;DHT22;31507;51.494;7.518;2022-12-18T07:12:46;-2.80;99.90
45807;DHT22;31507;51.494;7.518;2022-12-18T07:15:12;-2.80;99.90
45807;DHT22;31507;51.494;7.518;2022-12-18T07:17:37;-2.80;99.90
45807;DHT22;31507;51.494;7.518;2022-12-18T07:20:04;-2.70;99.90
45807;DHT22;31507;51.494;7.518;2022-12-18T07:22:29;-2.70;99.90
45807;DHT22;31507;51.494;7.518;2022-12-18T07:24:55;-2.60;99.90
45807;DHT22;31507;51.494;7.518;2022-12-18T07:27:21;-2.60;99.90
45807;DHT22;31507;51.494;7.518;2022-12-18T07:29:47;-2.50;99.90
45807;DHT22;31507;51.494;7.518;2022-12-18T07:32:13;-2.50;99.90
45807;DHT22;31507;51.494;7.518;2022-12-18T07:34:38;-2.40;99.90
45807;DHT22;31507;51.494;7.518;2022-12-18T07:37:04;-2.30;99.90
45807;DHT22;31507;51.494;7.518;2022-12-18T07:39:30;-2.30;99.90
45807;DHT22;31507;51.494;7.518;2022-12-18T07:41:56;-2.30;99.90
45807;DHT22;31507;51.494;7.518;2022-12-18T07:44:40;-2.20;99.90
45807;DHT22;31507;51.494;7.518;2022-12-18T07:47:05;-2.10;99.90
45807;DHT22;31507;51.494;7.518;2022-12-18T07:49:31;-2.00;99.90
45807;DHT22;31507;51.494;7.518;2022-12-18T07:51:57;-2.10;99.90
45807;DHT22;31507;51.494;7.518;2022-12-18T07:54:24;-1.90;99.90
45807;DHT22;31507;51.494;7.518;2022-12-18T07:56:50;-1.90;99.90
45807;DHT22;31507;51.494;7.518;2022-12-18T07:59:16;-1.80;99.90
45807;DHT22;31507;51.494;7.518;2022-12-18T08:01:42;-1.80;99.90
45807;DHT22;31507;51.494;7.518;2022-12-18T08:04:08;-1.70;99.70
45807;DHT22;31507;51.494;7.518;2022-12-18T08:06:33;-1.70;99.90
45807;DHT22;31507;51.494;7.518;2022-12-18T08:08:59;-1.70;99.80
45807;DHT22;31507;51.494;7.518;2022-12-18T08:11:26;-1.50;98.70
45807;DHT22;31507;51.494;7.518;2022-12-18T08:13:52;-1.50;99.30
45807;DHT22;31507;51.494;7.518;2022-12-18T08:16:18;-1.50;98.90
45807;DHT22;31507;51.494;7.518;2022-12-18T08:18:44;-1.50;99.40
45807;DHT22;31507;51.494;7.518;2022-12-18T08:21:15;-1.50;99.40
45807;DHT22;31507;51.494;7.518;2022-12-18T08:23:42;-1.50;99.90
45807;DHT22;31507;51.494;7.518;2022-12-18T08:26:08;-1.50;99.60
45807;DHT22;31507;51.494;7.518;2022-12-18T08:28:34;-1.50;99.90
45807;DHT22;31507;51.494;7.518;2022-12-18T08:31:01;-1.40;98.70
45807;DHT22;31507;51.494;7.518;2022-12-18T08:33:27;-1.30;99.30
45807;DHT22;31507;51.494;7.518;2022-12-18T08:35:53;-1.40;99.60
45807;DHT22;31507;51.494;7.518;2022-12-18T08:38:18;-1.30;99.40
45807;DHT22;31507;51.494;7.518;2022-12-18T08:40:44;-1.30;98.70
45807;DHT22;31507;51.494;7.518;2022-12-18T08:43:10;-1.30;99.90
45807;DHT22;31507;51.494;7.518;2022-12-18T08:45:55;-1.20;99.20
45807;DHT22;31507;51.494;7.518;2022-12-18T08:48:21;-1.10;98.70
45807;DHT22;31507;51.494;7.518;2022-12-18T08:50:56;-1.00;98.80
45807;DHT22;31507;51.494;7.518;2022-12-18T08:53:26;-0.80;99.00
45807;DHT22;31507;51.494;7.518;2022-12-18T08:55:52;-0.70;98.70
45807;DHT22;31507;51.494;7.518;2022-12-18T08:58:18;-0.70;98.50
45807;DHT22;31507;51.494;7.518;2022-12-18T09:00:44;-0.60;97.90
45807;DHT22;31507;51.494;7.518;2022-12-18T09:03:14;-0.50;98.50
45807;DHT22;31507;51.494;7.518;2022-12-18T09:05:40;-0.40;95.10
45807;DHT22;31507;51.494;7.518;2022-12-18T09:08:05;-0.30;95.40
45807;DHT22;31507;51.494;7.518;2022-12-18T09:10:31;-0.20;96.80
45807;DHT22;31507;51.494;7.518;2022-12-18T09:12:57;-0.10;96.50
45807;DHT22;31507;51.494;7.518;2022-12-18T09:15:23;0.10;96.90
45807;DHT22;31507;51.494;7.518;2022-12-18T09:17:49;0.20;96.10
45807;DHT22;31507;51.494;7.518;2022-12-18T09:20:15;0.30;97.30
45807;DHT22;31507;51.494;7.518;2022-12-18T09:22:41;0.40;98.10
45807;DHT22;31507;51.494;7.518;2022-12-18T09:25:07;0.60;96.80
45807;DHT22;31507;51.494;7.518;2022-12-18T09:27:34;0.70;95.60
45807;DHT22;31507;51.494;7.518;2022-12-18T09:29:59;0.70;95.50
45807;DHT22;31507;51.494;7.518;2022-12-18T09:32:25;0.70;96.40
45807;DHT22;31507;51.494;7.518;2022-12-18T09:34:51;0.80;96.10
45807;DHT22;31507;51.494;7.518;2022-12-18T09:37:16;0.80;93.60
45807;DHT22;31507;51.494;7.518;2022-12-18T09:39:42;0.90;95.40
45807;DHT22;31507;51.494;7.518;2022-12-18T09:42:20;0.90;94.30
45807;DHT22;31507;51.494;7.518;2022-12-18T09:44:53;0.90;94.40
45807;DHT22;31507;51.494;7.518;2022-12-18T09:47:33;0.90;94.70
45807;DHT22;31507;51.494;7.518;2022-12-18T09:52:50;1.10;94.10
45807;DHT22;31507;51.494;7.518;2022-12-18T09:55:27;1.10;91.30
45807;DHT22;31507;51.494;7.518;2022-12-18T09:58:41;1.20;92.60
45807;DHT22;31507;51.494;7.518;2022-12-18T10:01:18;1.20;91.90
45807;DHT22;31507;51.494;7.518;2022-12-18T10:03:44;1.30;90.90
45807;DHT22;31507;51.494;7.518;2022-12-18T10:17:50;1.70;90.10
45807;DHT22;31507;51.494;7.518;2022-12-18T10:20:33;1.80;89.40
45807;DHT22;31507;51.494;7.518;2022-12-18T10:23:33;1.90;91.60
45807;DHT22;31507;51.494;7.518;2022-12-18T10:26:09;2.00;88.70
45807;DHT22;31507;51.494;7.518;2022-12-18T10:28:39;2.10;90.90
45807;DHT22;31507;51.494;7.518;2022-12-18T10:31:07;2.10;90.00
45807;DHT22;31507;51.494;7.518;2022-12-18T10:33:33;2.20;91.00
45807;DHT22;31507;51.494;7.518;2022-12-18T10:35:59;2.10;89.90
45807;DHT22;31507;51.494;7.518;2022-12-18T10:38:30;2.10;91.70
45807;DHT22;31507;51.494;7.518;2022-12-18T10:43:30;2.20;92.20
45807;DHT22;31507;51.494;7.518;2022-12-18T10:48:32;2.20;92.30
45807;DHT22;31507;51.494;7.518;2022-12-18T10:50:58;2.20;91.50
45807;DHT22;31507;51.494;7.518;2022-12-18T10:53:27;2.30;91.40
45807;DHT22;31507;51.494;7.518;2022-12-18T10:55:54;2.40;90.70
45807;DHT22;31507;51.494;7.518;2022-12-18T11:01:12;2.50;89.80
45807;DHT22;31507;51.494;7.518;2022-12-18T11:06:18;2.50;89.70
45807;DHT22;31507;51.494;7.518;2022-12-18T11:08:59;2.60;91.20
45807;DHT22;31507;51.494;7.518;2022-12-18T11:11:25;2.70;89.10
45807;DHT22;31507;51.494;7.518;2022-12-18T11:14:03;2.80;90.90
45807;DHT22;31507;51.494;7.518;2022-12-18T11:16:42;2.90;90.50
45807;DHT22;31507;51.494;7.518;2022-12-18T11:21:52;3.00;90.20
45807;DHT22;31507;51.494;7.518;2022-12-18T11:24:35;3.10;91.80
45807;DHT22;31507;51.494;7.518;2022-12-18T11:27:05;3.20;91.00
45807;DHT22;31507;51.494;7.518;2022-12-18T11:29:34;3.10;91.70
45807;DHT22;31507;51.494;7.518;2022-12-18T11:34:49;3.00;91.40
45807;DHT22;31507;51.494;7.518;2022-12-18T11:37:17;3.00;91.50
45807;DHT22;31507;51.494;7.518;2022-12-18T11:39:57;3.10;91.50
45807;DHT22;31507;51.494;7.518;2022-12-18T11:43:09;3.10;87.90
45807;DHT22;31507;51.494;7.518;2022-12-18T11:50:56;3.00;91.00
45807;DHT22;31507;51.494;7.518;2022-12-18T11:53:22;3.00;90.00
45807;DHT22;31507;51.494;7.518;2022-12-18T11:58:46;2.80;91.30
45807;DHT22;31507;51.494;7.518;2022-12-18T12:06:28;2.80;91.30
45807;DHT22;31507;51.494;7.518;2022-12-18T12:25:37;2.80;87.60
45807;DHT22;31507;51.494;7.518;2022-12-18T12:33:29;2.70;90.60
45807;DHT22;31507;51.494;7.518;2022-12-18T12:38:43;2.80;91.20
45807;DHT22;31507;51.494;7.518;2022-12-18T12:41:14;2.80;90.50
45807;DHT22;31507;51.494;7.518;2022-12-18T12:44:07;2.90;90.50
45807;DHT22;31507;51.494;7.518;2022-12-18T12:46:37;2.90;89.90
45807;DHT22;31507;51.494;7.518;2022-12-18T12:49:16;2.90;85.30
45807;DHT22;31507;51.494;7.518;2022-12-18T12:51:47;2.80;90.80
45807;DHT22;31507;51.494;7.518;2022-12-18T12:54:23;2.80;91.10
45807;DHT22;31507;51.494;7.518;2022-12-18T13:05:38;2.70;91.40
45807;DHT22;31507;51.494;7.518;2022-12-18T13:12:50;2.60;91.90
45807;DHT22;31507;51.494;7.518;2022-12-18T13:18:20;2.60;91.40
45807;DHT22;31507;51.494;7.518;2022-12-18T13:21:20;2.60;91.60
45807;DHT22;31507;51.494;7.518;2022-12-18T13:23:47;2.60;91.10
45807;DHT22;31507;51.494;7.518;2022-12-18T13:33:42;2.70;90.80
45807;DHT22;31507;51.494;7.518;2022-12-18T13:36:30;2.70;90.80
45807;DHT22;31507;51.494;7.518;2022-12-18T13:41:42;2.60;90.50
45807;DHT22;31507;51.494;7.518;2022-12-18T13:46:50;2.50;90.90
45807;DHT22;31507;51.494;7.518;2022-12-18T13:49:38;2.40;91.20
45807;DHT22;31507;51.494;7.518;2022-12-18T13:52:20;2.30;90.80
45807;DHT22;31507;51.494;7.518;2022-12-18T13:54:55;2.30;91.10
45807;DHT22;31507;51.494;7.518;2022-12-18T13:57:28;2.10;92.30
45807;DHT22;31507;51.494;7.518;2022-12-18T13:59:55;1.90;93.20
45807;DHT22;31507;51.494;7.518;2022-12-18T14:02:23;1.80;94.00
45807;DHT22;31507;51.494;7.518;2022-12-18T14:04:51;1.60;94.20
45807;DHT22;31507;51.494;7.518;2022-12-18T14:07:19;1.60;94.80
45807;DHT22;31507;51.494;7.518;2022-12-18T14:09:49;1.60;93.70
45807;DHT22;31507;51.494;7.518;2022-12-18T14:15:03;1.80;91.80
45807;DHT22;31507;51.494;7.518;2022-12-18T14:17:31;1.90;91.50
45807;DHT22;31507;51.494;7.518;2022-12-18T14:19:57;2.00;91.00
45807;DHT22;31507;51.494;7.518;2022-12-18T14:22:26;2.10;90.00
45807;DHT22;31507;51.494;7.518;2022-12-18T14:27:42;2.10;86.50
45807;DHT22;31507;51.494;7.518;2022-12-18T14:35:28;2.00;90.20
45807;DHT22;31507;51.494;7.518;2022-12-18T14:37:59;2.00;90.20
45807;DHT22;31507;51.494;7.518;2022-12-18T14:40:32;1.90;90.40
45807;DHT22;31507;51.494;7.518;2022-12-18T14:42:58;1.90;90.20
45807;DHT22;31507;51.494;7.518;2022-12-18T14:45:43;1.80;90.30
45807;DHT22;31507;51.494;7.518;2022-12-18T14:53:51;1.60;90.00
45807;DHT22;31507;51.494;7.518;2022-12-18T14:56:25;1.60;90.20
45807;DHT22;31507;51.494;7.518;2022-12-18T14:58:56;1.50;90.80
45807;DHT22;31507;51.494;7.518;2022-12-18T15:01:30;1.50;90.70
45807;DHT22;31507;51.494;7.518;2022-12-18T15:03:58;1.50;90.40
45807;DHT22;31507;51.494;7.518;2022-12-18T15:06:30;1.50;90.00
45807;DHT22;31507;51.494;7.518;2022-12-18T15:09:01;1.50;90.00
45807;DHT22;31507;51.494;7.518;2022-12-18T15:13:54;1.60;88.70
45807;DHT22;31507;51.494;7.518;2022-12-18T15:16:20;1.60;88.80
45807;DHT22;31507;51.494;7.518;2022-12-18T15:18:46;1.60;88.80
45807;DHT22;31507;51.494;7.518;2022-12-18T15:21:18;1.60;89.70
45807;DHT22;31507;51.494;7.518;2022-12-18T15:26:12;1.50;89.00
45807;DHT22;31507;51.494;7.518;2022-12-18T15:28:47;1.50;89.20
45807;DHT22;31507;51.494;7.518;2022-12-18T15:34:28;1.50;87.90
45807;DHT22;31507;51.494;7.518;2022-12-18T15:36:29;1.60;86.90
45807;DHT22;31507;51.494;7.518;2022-12-18T15:38:56;1.60;85.70
45807;DHT22;31507;51.494;7.518;2022-12-18T15:41:22;1.70;85.80
45807;DHT22;31507;51.494;7.518;2022-12-18T15:43:49;1.70;85.70
45807;DHT22;31507;51.494;7.518;2022-12-18T15:46:21;1.70;86.60
45807;DHT22;31507;51.494;7.518;2022-12-18T15:48:51;1.60;86.90
45807;DHT22;31507;51.494;7.518;2022-12-18T15:51:17;1.50;84.40
45807;DHT22;31507;51.494;7.518;2022-12-18T15:53:44;1.60;82.90
45807;DHT22;31507;51.494;7.518;2022-12-18T15:56:11;1.60;84.50
45807;DHT22;31507;51.494;7.518;2022-12-18T15:58:56;1.60;85.20
45807;DHT22;31507;51.494;7.518;2022-12-18T16:01:23;1.50;86.00
45807;DHT22;31507;51.494;7.518;2022-12-18T16:03:50;1.50;83.60
45807;DHT22;31507;51.494;7.518;2022-12-18T16:06:16;1.50;86.70
45807;DHT22;31507;51.494;7.518;2022-12-18T16:08:41;1.40;85.60
45807;DHT22;31507;51.494;7.518;2022-12-18T16:11:24;1.40;83.90
45807;DHT22;31507;51.494;7.518;2022-12-18T16:14:23;1.30;84.20
45807;DHT22;31507;51.494;7.518;2022-12-18T16:16:54;1.30;85.60
45807;DHT22;31507;51.494;7.518;2022-12-18T16:19:20;1.20;87.10
45807;DHT22;31507;51.494;7.518;2022-12-18T16:21:47;1.20;87.30
45807;DHT22;31507;51.494;7.518;2022-12-18T16:24:21;1.10;86.60
45807;DHT22;31507;51.494;7.518;2022-12-18T16:26:47;1.10;86.60
45807;DHT22;31507;51.494;7.518;2022-12-18T16:29:13;1.10;85.80
45807;DHT22;31507;51.494;7.518;2022-12-18T16:31:39;1.10;86.40
45807;DHT22;31507;51.494;7.518;2022-12-18T16:36:57;1.00;83.80
45807;DHT22;31507;51.494;7.518;2022-12-18T16:39:24;1.00;86.70
45807;DHT22;31507;51.494;7.518;2022-12-18T16:41:50;1.00;87.00
45807;DHT22;31507;51.494;7.518;2022-12-18T16:44:16;0.90;87.50
45807;DHT22;31507;51.494;7.518;2022-12-18T16:46:42;0.90;87.20
45807;DHT22;31507;51.494;7.518;2022-12-18T16:49:10;0.80;88.00
45807;DHT22;31507;51.494;7.518;2022-12-18T16:51:36;0.90;88.60
45807;DHT22;31507;51.494;7.518;2022-12-18T16:54:02;0.90;90.00
45807;DHT22;31507;51.494;7.518;2022-12-18T16:56:28;0.90;88.90
45807;DHT22;31507;51.494;7.518;2022-12-18T16:58:55;0.90;89.40
45807;DHT22;31507;51.494;7.518;2022-12-18T17:01:21;0.90;90.00
45807;DHT22;31507;51.494;7.518;2022-12-18T17:03:51;0.90;90.80
45807;DHT22;31507;51.494;7.518;2022-12-18T17:06:18;1.00;90.90
45807;DHT22;31507;51.494;7.518;2022-12-18T17:08:44;1.00;91.20
45807;DHT22;31507;51.494;7.518;2022-12-18T17:11:09;1.00;91.40
45807;DHT22;31507;51.494;7.518;2022-12-18T17:13:35;1.00;91.80
45807;DHT22;31507;51.494;7.518;2022-12-18T17:16:02;1.00;92.00
45807;DHT22;31507;51.494;7.518;2022-12-18T17:18:28;1.00;92.30
45807;DHT22;31507;51.494;7.518;2022-12-18T17:20:59;1.00;93.00
45807;DHT22;31507;51.494;7.518;2022-12-18T17:23:26;0.90;93.40
45807;DHT22;31507;51.494;7.518;2022-12-18T17:25:59;0.90;93.80
45807;DHT22;31507;51.494;7.518;2022-12-18T17:28:26;0.90;94.20
45807;DHT22;31507;51.494;7.518;2022-12-18T17:30:53;0.80;94.70
45807;DHT22;31507;51.494;7.518;2022-12-18T17:33:19;0.80;95.00
45807;DHT22;31507;51.494;7.518;2022-12-18T17:35:45;0.80;95.40
45807;DHT22;31507;51.494;7.518;2022-12-18T17:38:11;0.80;95.80
45807;DHT22;31507;51.494;7.518;2022-12-18T17:40:37;0.80;96.30
45807;DHT22;31507;51.494;7.518;2022-12-18T17:43:02;0.80;96.60
45807;DHT22;31507;51.494;7.518;2022-12-18T17:45:28;0.80;97.30
45807;DHT22;31507;51.494;7.518;2022-12-18T17:47:54;0.80;97.40
45807;DHT22;31507;51.494;7.518;2022-12-18T17:50:19;0.80;97.50
45807;DHT22;31507;51.494;7.518;2022-12-18T17:52:45;0.80;97.90
45807;DHT22;31507;51.494;7.518;2022-12-18T17:55:11;0.80;98.10
45807;DHT22;31507;51.494;7.518;2022-12-18T17:57:36;0.80;98.30
45807;DHT22;31507;51.494;7.518;2022-12-18T18:00:04;0.80;98.50
45807;DHT22;31507;51.494;7.518;2022-12-18T18:02:30;0.80;98.40
45807;DHT22;31507;51.494;7.518;2022-12-18T18:04:56;0.80;98.70
45807;DHT22;31507;51.494;7.518;2022-12-18T18:07:21;0.80;98.60
45807;DHT22;31507;51.494;7.518;2022-12-18T18:09:47;0.80;98.80
45807;DHT22;31507;51.494;7.518;2022-12-18T18:12:13;0.70;98.70
45807;DHT22;31507;51.494;7.518;2022-12-18T18:14:57;0.70;98.90
45807;DHT22;31507;51.494;7.518;2022-12-18T18:17:23;0.70;99.10
45807;DHT22;31507;51.494;7.518;2022-12-18T18:19:49;0.70;99.00